Time;durP1;ratioP1;P1;durP2;ratioP2;P2;SDS_P1;SDS_P2;PMS_P1;PMS_P2;Temp;Humidity;BMP_temperature;BMP_pressure;BME280_temperature;BME280_humidity;BME280_pressure;Samples;Min_cycle;Max_cycle;Signal;HPM_P1;HPM_P2
2022/12/27 00:01:32;;;;;;;8.95;3.42;;;;;;;4.06;85.80;101499.41;6305676;22;20044;-76
2022/12/27 00:04:36;;;;;;;6.50;2.63;;;;;;;4.02;86.11;101505.47;6305595;22;20026;-76
2022/12/27 00:07:39;;;;;;;6.07;1.95;;;;;;;4.07;85.70;101508.00;6305608;22;20026;-76
2022/12/27 00:10:42;;;;;;;;;;;;;;;4.15;85.21;101507.06;6306151;22;20026;-76
2022/12/27 00:13:46;;;;;;;8.02;1.83;;;;;;;4.13;85.29;101513.13;6305538;22;19913;-76
2022/12/27 00:16:50;;;;;;;20.58;11.77;;;;;;;3.97;85.74;101515.00;6286771;22;20069;-76
2022/12/27 00:19:54;;;;;;;29.42;15.60;;;;;;;4.06;86.13;101517.50;6305474;22;20029;-76
2022/12/27 00:22:59;;;;;;;22.77;11.80;;;;;;;4.02;86.28;101508.06;6286601;22;20112;-76
2022/12/27 00:26:05;;;;;;;9.65;4.82;;;;;;;4.03;85.47;101508.91;6286508;22;20076;-77
2022/12/27 00:29:09;;;;;;;16.63;8.60;;;;;;;3.99;86.18;101512.38;6305470;22;20363;-76
2022/12/27 00:32:13;;;;;;;;;;;;;;;4.08;85.64;101510.56;6286814;22;20029;-77
2022/12/27 00:35:16;;;;;;;8.88;4.18;;;;;;;3.96;85.73;101519.31;6305305;22;19917;-78
2022/12/27 00:38:20;;;;;;;6.13;2.17;;;;;;;3.88;86.01;101518.53;6305137;22;20127;-77
2022/12/27 00:41:24;;;;;;;8.98;3.63;;;;;;;3.90;85.60;101516.78;6305334;22;20027;-77
2022/12/27 00:44:28;;;;;;;13.00;4.20;;;;;;;3.90;85.52;101521.97;6305366;22;20022;-77
2022/12/27 00:47:31;;;;;;;10.73;3.63;;;;;;;3.87;85.51;101524.56;6305363;22;20085;-77
2022/12/27 00:50:34;;;;;;;11.63;3.88;;;;;;;3.83;85.34;101535.84;6305282;22;20069;-78
2022/12/27 00:53:39;;;;;;;10.70;3.33;;;;;;;3.84;85.39;101529.78;6286237;22;20022;-78
2022/12/27 00:56:42;;;;;;;8.90;3.13;;;;;;;3.94;85.46;101534.00;6305273;22;20072;-76
2022/12/27 00:59:46;;;;;;;9.55;2.67;;;;;;;3.92;84.39;101538.34;6305196;22;20068;-75
2022/12/27 01:02:49;;;;;;;5.75;2.13;;;;;;;3.88;85.02;101543.53;6304874;22;20074;-77
2022/12/27 01:05:53;;;;;;;5.93;1.50;;;;;;;3.91;84.96;101546.97;6305147;22;20544;-77
2022/12/27 01:08:57;;;;;;;9.80;2.20;;;;;;;3.93;84.59;101553.00;6305038;22;20046;-77
2022/12/27 01:12:00;;;;;;;5.57;2.13;;;;;;;4.08;84.16;101551.97;6304941;22;20029;-77
2022/12/27 01:15:07;;;;;;;8.35;2.03;;;;;;;4.06;84.66;101553.75;6305117;22;20034;-76
2022/12/27 01:18:10;;;;;;;8.38;2.30;;;;;;;3.94;85.16;101559.03;6305111;22;20026;-76
2022/12/27 01:21:16;;;;;;;11.52;2.50;;;;;;;3.92;85.57;101556.47;6305139;22;20034;-77
2022/12/27 01:24:19;;;;;;;7.93;2.75;;;;;;;3.94;85.32;101549.53;6304613;22;20104;-76
2022/12/27 01:27:23;;;;;;;6.75;2.45;;;;;;;4.10;84.54;101546.81;6305815;22;20038;-76
2022/12/27 01:30:26;;;;;;;5.13;1.85;;;;;;;4.08;85.14;101556.31;6305468;22;20360;-77
2022/12/27 01:33:29;;;;;;;10.07;2.30;;;;;;;4.21;84.92;101547.53;6305398;22;20026;-77
2022/12/27 01:36:33;;;;;;;;;;;;;;;4.22;84.49;101563.97;6306288;22;20094;-77
2022/12/27 01:39:35;;;;;;;7.88;1.73;;;;;;;4.13;84.07;101564.91;6305828;22;20291;-77
2022/12/27 01:42:51;;;;;;;7.88;1.58;;;;;;;3.76;85.39;101570.34;6305840;22;20112;-77
2022/12/27 01:45:53;;;;;;;6.50;1.92;;;;;;;4.00;85.29;101571.91;6288739;22;20026;-78
2022/12/27 01:48:57;;;;;;;7.85;1.70;;;;;;;4.12;83.51;101576.13;6307042;22;20076;-77
2022/12/27 01:52:00;;;;;;;3.67;1.23;;;;;;;4.21;82.73;101568.25;6307757;22;20117;-77
2022/12/27 01:55:11;;;;;;;5.07;1.40;;;;;;;4.28;82.45;101569.09;6307770;22;20026;-77
2022/12/27 01:58:23;;;;;;;8.77;1.77;;;;;;;4.33;82.06;101573.31;6308025;22;20084;-77
2022/12/27 02:01:31;;;;;;;6.20;1.00;;;;;;;4.37;81.46;101564.69;6308051;22;20022;-77
2022/12/27 02:04:35;;;;;;;6.75;1.58;;;;;;;4.47;81.93;101569.72;6305892;22;20076;-77
2022/12/27 02:07:44;;;;;;;6.60;1.30;;;;;;;4.56;81.23;101580.88;6307262;22;20022;-77
2022/12/27 02:10:49;;;;;;;5.95;1.33;;;;;;;4.66;81.13;101581.66;6307449;22;20352;-77
2022/12/27 02:13:53;;;;;;;7.63;1.40;;;;;;;4.58;80.79;101583.44;6288822;22;20022;-77
2022/12/27 02:16:59;;;;;;;7.75;1.75;;;;;;;4.79;81.68;101580.63;6307511;22;20026;-78
2022/12/27 02:24:57;;;;;;;7.18;1.50;;;;;;;4.71;84.05;101594.53;6306675;22;20030;-78
2022/12/27 02:28:15;;;;;;;6.57;1.30;;;;;;;4.52;80.97;101584.34;6306211;22;20027;-78
2022/12/27 02:31:34;;;;;;;6.63;1.40;;;;;;;4.61;80.90;101584.25;6307359;22;20049;-77
2022/12/27 02:34:45;;;;;;;6.15;1.17;;;;;;;4.80;80.87;101576.28;6307041;22;20088;-77
2022/12/27 02:38:00;;;;;;;5.70;1.67;;;;;;;4.84;81.38;101586.59;6287831;22;20052;-77
2022/12/27 02:55:01;;;;;;;6.78;1.27;;;;;;;4.80;82.32;101603.06;6306736;22;20503;-77
2022/12/27 02:58:20;;;;;;;7.50;2.05;;;;;;;4.75;82.66;101606.56;6307279;22;20026;-78
2022/12/27 03:05:31;;;;;;;7.82;1.98;;;;;;;4.83;82.83;101605.63;6307274;22;20029;-77
2022/12/27 03:08:45;;;;;;;10.32;1.70;;;;;;;4.97;81.88;101596.81;6306924;22;20460;-77
2022/12/27 03:15:56;;;;;;;10.98;2.58;;;;;;;4.87;82.67;101593.47;6306307;22;20443;-77
2022/12/27 03:26:07;;;;;;;6.55;1.35;;;;;;;4.73;81.86;101604.00;6306778;22;20485;-79
2022/12/27 03:33:11;;;;;;;9.75;1.70;;;;;;;4.72;82.25;101607.44;6306105;22;20086;-79
2022/12/27 03:40:15;;;;;;;4.68;1.67;;;;;;;4.79;81.91;101609.13;6306628;22;20025;-77
2022/12/27 03:43:18;;;;;;;5.07;1.20;;;;;;;4.93;81.65;101603.78;6306756;22;20449;-77
2022/12/27 03:46:34;;;;;;;7.82;1.60;;;;;;;4.93;81.06;101606.38;6306655;22;20023;-77
2022/12/27 03:49:47;;;;;;;5.78;1.58;;;;;;;4.79;80.14;101603.94;6307005;22;20040;-77
2022/12/27 03:53:25;;;;;;;5.93;1.30;;;;;;;5.03;81.07;101604.53;6306892;22;20050;-77
2022/12/27 03:56:29;;;;;;;7.28;2.42;;;;;;;4.83;81.48;101608.22;6306536;22;20359;-78
2022/12/27 03:59:33;;;;;;;7.30;1.70;;;;;;;4.69;82.21;101617.88;6306261;22;20353;-78
2022/12/27 04:02:36;;;;;;;7.30;1.10;;;;;;;4.79;82.42;101614.31;6306628;22;20072;-78
2022/12/27 04:05:39;;;;;;;7.22;1.42;;;;;;;4.79;82.38;101616.06;6306427;22;20026;-78
2022/12/27 04:35:37;;;;;;;6.18;1.67;;;;;;;4.94;82.62;101634.00;6306192;22;20026;-77
2022/12/27 04:38:40;;;;;;;6.40;1.38;;;;;;;5.03;82.33;101630.44;6306471;22;20026;-77
2022/12/27 04:55:41;;;;;;;7.07;1.58;;;;;;;5.07;81.47;101613.97;6305435;22;20073;-77
2022/12/27 05:02:06;;;;;;;6.90;1.60;;;;;;;4.93;81.77;101610.69;6305565;22;20347;-77
2022/12/27 05:05:11;;;;;;;;;;;;;;;4.90;82.25;101609.84;6305473;22;20399;-77
2022/12/27 05:15:00;;;;;;;6.78;1.67;;;;;;;4.92;81.57;101617.63;6305432;22;20073;-77
2022/12/27 05:18:04;;;;;;;6.00;1.73;;;;;;;4.89;81.67;101631.47;6305487;22;20022;-78
2022/12/27 05:21:08;;;;;;;7.03;1.58;;;;;;;4.94;82.19;101640.91;6305363;22;20022;-78
2022/12/27 05:27:33;;;;;;;9.93;2.10;;;;;;;4.87;81.85;101642.72;6305189;22;20581;-78
2022/12/27 05:30:39;;;;;;;7.30;1.75;;;;;;;4.89;82.10;101653.94;6305082;22;20025;-78
2022/12/27 05:33:42;;;;;;;6.75;1.83;;;;;;;4.98;81.04;101650.38;6305728;22;20111;-78
2022/12/27 05:36:45;;;;;;;;;;;;;;;4.81;81.57;101647.97;6305970;22;20101;-78
2022/12/27 05:39:48;;;;;;;7.78;1.77;;;;;;;4.92;81.52;101647.88;6286178;22;19959;-78
2022/12/27 05:42:52;;;;;;;7.10;2.13;;;;;;;5.02;81.13;101650.34;6305320;22;20026;-78
2022/12/27 05:46:06;;;;;;;12.07;3.33;;;;;;;5.07;80.63;101658.03;6305075;22;20022;-77
2022/12/27 05:49:10;;;;;;;9.32;1.90;;;;;;;5.01;80.87;101645.16;6286605;22;20101;-78
2022/12/27 05:52:16;;;;;;;7.95;1.40;;;;;;;4.89;80.83;101634.06;6305188;22;20348;-77
2022/12/27 05:55:20;;;;;;;6.38;1.60;;;;;;;4.95;81.77;101645.25;6303318;22;20081;-78
2022/12/27 05:58:24;;;;;;;;;;;;;;;4.88;80.64;101640.13;6305705;22;20050;-78
2022/12/27 06:01:27;;;;;;;;;;;;;;;4.83;81.61;101641.03;6306132;22;20295;-78
2022/12/27 06:04:31;;;;;;;10.32;2.17;;;;;;;4.83;82.04;101641.03;6305452;22;19934;-78
2022/12/27 06:07:35;;;;;;;;;;;;;;;4.77;81.77;101641.97;6305626;22;20522;-78
2022/12/27 06:10:39;;;;;;;5.38;1.70;;;;;;;4.82;81.13;101637.59;6305321;22;19952;-78
2022/12/27 06:13:48;;;;;;;6.22;1.48;;;;;;;4.89;81.65;101636.66;6304828;22;20049;-78
2022/12/27 06:16:51;;;;;;;11.75;1.77;;;;;;;4.60;82.05;101656.81;6304601;22;20022;-78
2022/12/27 06:19:55;;;;;;;;;;;;;;;4.51;82.55;101665.53;6305553;22;20034;-78
2022/12/27 06:22:59;;;;;;;5.72;1.98;;;;;;;4.56;82.85;101658.59;6304727;22;19918;-77
2022/12/27 06:26:10;;;;;;;7.32;2.40;;;;;;;4.67;82.40;101658.47;6304702;22;20026;-77
2022/12/27 06:29:13;;;;;;;7.22;2.22;;;;;;;4.56;82.57;101668.94;6304310;22;20021;-77
2022/12/27 06:32:23;;;;;;;8.43;2.33;;;;;;;4.28;84.13;101662.28;6306928;22;20077;-78
2022/12/27 06:35:27;;;;;;;6.82;1.63;;;;;;;4.34;83.70;101665.69;6306872;22;20529;-78
2022/12/27 06:38:31;;;;;;;7.50;2.38;;;;;;;4.18;84.25;101666.69;6306273;22;20470;-77
2022/12/27 06:41:34;;;;;;;8.18;2.08;;;;;;;4.23;84.06;101683.03;6307015;22;20360;-78
2022/12/27 06:44:39;;;;;;;11.68;2.47;;;;;;;4.04;84.40;101684.03;6306768;22;20468;-77
2022/12/27 06:47:44;;;;;;;6.32;1.63;;;;;;;4.11;84.27;101677.94;6302625;22;20088;-79
2022/12/27 06:50:48;;;;;;;3.08;1.30;;;;;;;4.25;83.60;101676.13;6301379;22;20029;-78
2022/12/27 06:53:52;;;;;;;5.93;1.08;;;;;;;4.30;82.56;101670.88;6301425;22;20022;-77
2022/12/27 06:56:55;;;;;;;;;;;;;;;4.30;83.04;101673.47;6300267;22;20026;-77
2022/12/27 06:59:58;;;;;;;8.45;1.80;;;;;;;4.28;82.72;101694.22;6300865;22;19956;-75
2022/12/27 07:03:03;;;;;;;7.57;1.50;;;;;;;4.20;83.29;101706.34;6301060;22;20214;-76
2022/12/27 07:06:10;;;;;;;8.95;2.63;;;;;;;4.30;82.80;101707.13;6300834;22;20365;-76
2022/12/27 07:09:13;;;;;;;4.75;1.40;;;;;;;4.34;82.65;101704.53;6301611;22;20463;-75
2022/12/27 07:12:17;;;;;;;;;;;;;;;4.38;82.18;101710.53;6302885;22;20104;-76
2022/12/27 07:15:20;;;;;;;8.38;1.83;;;;;;;4.28;82.87;101717.53;6301662;22;20235;-76
2022/12/27 07:18:25;;;;;;;4.25;1.17;;;;;;;4.17;83.57;101724.47;6300561;22;20068;-76
2022/12/27 07:21:28;;;;;;;5.20;1.40;;;;;;;4.20;82.74;101724.47;6301148;22;20026;-76
2022/12/27 07:24:32;;;;;;;6.15;1.40;;;;;;;4.14;83.74;101737.44;6300845;22;20021;-77
2022/12/27 07:27:36;;;;;;;5.90;2.03;;;;;;;3.96;83.19;101749.63;6299751;22;20026;-77
2022/12/27 07:30:40;;;;;;;10.38;1.90;;;;;;;3.85;84.60;101746.22;6300138;22;20025;-76
2022/12/27 07:33:44;;;;;;;10.15;2.85;;;;;;;3.99;83.99;101753.06;6300042;22;20022;-76
2022/12/27 07:36:47;;;;;;;7.10;1.70;;;;;;;4.09;83.78;101752.16;6299719;22;20027;-77
2022/12/27 07:39:51;;;;;;;;;;;;;;;4.14;82.66;101750.38;6299994;22;20502;-79
2022/12/27 07:42:56;;;;;;;7.25;2.45;;;;;;;4.22;82.39;101760.72;6299997;22;20339;-76
2022/12/27 07:46:16;;;;;;;9.23;1.88;;;;;;;4.41;81.68;101760.56;6300601;22;20353;-76
2022/12/27 07:49:20;;;;;;;4.68;1.88;;;;;;;4.46;81.84;101754.50;6300785;22;20182;-77
2022/12/27 07:52:23;;;;;;;8.70;1.77;;;;;;;4.55;81.46;101759.59;6300689;22;20352;-75
2022/12/27 07:55:26;;;;;;;8.50;2.25;;;;;;;4.55;80.51;101770.81;6300532;22;20516;-75
2022/12/27 07:58:29;;;;;;;8.23;3.10;;;;;;;4.54;81.17;101773.44;6302064;22;20026;-76
2022/12/27 08:02:02;;;;;;;6.35;1.92;;;;;;;4.63;80.56;101773.38;6300638;22;20057;-76
2022/12/27 08:05:51;;;;;;;8.25;2.95;;;;;;;4.81;79.81;101772.34;6300615;22;20365;-77
2022/12/27 08:09:02;;;;;;;7.05;2.25;;;;;;;4.73;80.23;101756.88;6302448;22;20080;-77
2022/12/27 08:12:07;;;;;;;7.25;3.00;;;;;;;4.76;80.55;101761.19;6301811;22;20102;-77
2022/12/27 08:15:14;;;;;;;6.38;2.63;;;;;;;4.62;81.91;101759.53;6300521;22;20058;-77
2022/12/27 08:18:19;;;;;;;12.10;2.65;;;;;;;4.63;81.87;101771.63;6299230;22;20081;-75
2022/12/27 08:21:23;;;;;;;11.45;2.17;;;;;;;4.77;80.49;101771.53;6299440;22;20365;-76
2022/12/27 08:24:26;;;;;;;;;;;;;;;4.81;80.19;101769.75;6298241;22;20046;-76
2022/12/27 08:27:30;;;;;;;7.25;2.42;;;;;;;4.77;80.59;101765.47;6299960;22;19928;-76
2022/12/27 08:30:33;;;;;;;;;;;;;;;4.86;80.57;101761.06;6302528;22;20030;-76
2022/12/27 08:33:38;;;;;;;8.73;2.10;;;;;;;4.85;80.34;101753.31;6302466;22;19917;-76
2022/12/27 08:36:41;;;;;;;13.73;2.53;;;;;;;4.80;80.37;101761.13;6301366;22;20029;-76
2022/12/27 08:39:45;;;;;;;9.13;2.78;;;;;;;4.90;80.01;101762.75;6303030;22;20049;-76
2022/12/27 08:42:48;;;;;;;15.18;3.03;;;;;;;4.97;79.85;101757.53;6305360;22;20022;-76
2022/12/27 08:45:51;;;;;;;9.52;2.50;;;;;;;4.77;80.64;101775.84;6304699;22;20084;-75
2022/12/27 08:48:55;;;;;;;11.18;2.47;;;;;;;4.81;81.19;101780.97;6304951;22;20120;-76
2022/12/27 08:51:58;;;;;;;;;;;;;;;4.90;80.39;101778.31;6305117;22;20026;-75
2022/12/27 08:55:03;;;;;;;7.85;2.30;;;;;;;4.83;80.35;101771.47;6305150;22;20367;-75
2022/12/27 08:58:10;;;;;;;9.13;3.25;;;;;;;4.90;79.84;101777.47;6286550;22;20026;-76
2022/12/27 09:01:15;;;;;;;14.85;3.35;;;;;;;4.93;79.75;101777.44;6306207;22;20025;-76
2022/12/27 09:04:18;;;;;;;10.00;3.30;;;;;;;4.75;80.11;101775.00;6304936;22;20610;-75
2022/12/27 09:07:22;;;;;;;10.70;6.40;;;;;;;4.80;80.87;101779.28;6305637;22;20030;-74
2022/12/27 09:10:25;;;;;;;11.27;5.22;;;;;;;4.78;80.05;101778.41;6305991;22;20026;-75
2022/12/27 09:13:29;;;;;;;23.38;12.93;;;;;;;4.70;79.69;101784.56;6302293;22;20057;-74
2022/12/27 09:17:04;;;;;;;10.25;3.53;;;;;;;4.68;80.02;101801.81;6271208;22;20026;-75
2022/12/27 09:20:11;;;;;;;15.50;5.78;;;;;;;4.72;79.72;101796.59;6301565;22;20369;-75
2022/12/27 09:23:18;;;;;;;9.93;4.32;;;;;;;4.82;79.54;101810.38;6301368;22;20022;-75
2022/12/27 09:26:25;;;;;;;8.23;3.83;;;;;;;4.77;79.74;101818.16;6300296;22;20652;-74
2022/12/27 09:29:29;;;;;;;12.32;5.40;;;;;;;4.87;79.25;101811.16;6301465;22;20030;-74
2022/12/27 09:32:33;;;;;;;;;;;;;;;4.80;79.10;101823.31;6300809;22;20054;-74
2022/12/27 09:35:36;;;;;;;5.95;2.70;;;;;;;4.89;78.65;101828.44;6300546;22;19917;-76
2022/12/27 09:38:40;;;;;;;10.68;2.70;;;;;;;4.94;78.06;101830.13;6302244;22;20107;-75
2022/12/27 09:42:10;;;;;;;5.65;2.08;;;;;;;5.01;78.61;101826.59;6301961;22;20085;-75
2022/12/27 09:45:25;;;;;;;11.35;3.83;;;;;;;4.96;78.21;101824.06;6301025;22;20022;-76
2022/12/27 09:48:35;;;;;;;11.05;3.15;;;;;;;4.93;78.47;101821.50;6301603;22;20041;-75
2022/12/27 09:51:48;;;;;;;8.10;2.30;;;;;;;5.03;77.89;101815.34;6305572;22;20088;-75
2022/12/27 09:55:27;;;;;;;11.57;2.58;;;;;;;4.94;77.78;101819.75;6304957;22;20026;-75
2022/12/27 09:58:43;;;;;;;8.40;2.60;;;;;;;4.90;77.93;101827.56;6306191;22;20072;-75
2022/12/27 10:01:47;;;;;;;6.82;2.30;;;;;;;4.89;78.40;101817.22;6305756;22;20026;-75
2022/12/27 10:04:53;;;;;;;6.80;2.00;;;;;;;4.89;78.46;101828.44;6304517;22;20072;-75
2022/12/27 10:08:33;;;;;;;8.05;2.15;;;;;;;4.93;78.39;101828.41;6305552;22;20021;-74
2022/12/27 10:11:48;;;;;;;8.15;2.15;;;;;;;4.96;77.86;101820.63;6287897;22;20030;-73
2022/12/27 10:15:24;;;;;;;6.18;1.80;;;;;;;4.90;78.33;101819.78;6306908;22;20022;-74
2022/12/27 10:19:01;;;;;;;6.90;1.73;;;;;;;4.99;78.54;101828.38;6306903;22;20072;-78
2022/12/27 10:22:34;;;;;;;7.10;2.60;;;;;;;4.93;78.05;101826.69;6306941;22;20030;-78
2022/12/27 10:25:39;;;;;;;13.32;6.85;;;;;;;4.96;77.43;101815.44;6307090;22;20514;-76
2022/12/27 10:28:49;;;;;;;8.00;2.83;;;;;;;4.92;77.36;101816.34;6307466;22;20356;-78
2022/12/27 10:31:55;;;;;;;8.95;2.20;;;;;;;5.10;77.28;101816.16;6307110;22;20109;-81
2022/12/27 10:35:02;;;;;;;5.18;2.08;;;;;;;5.08;77.32;101804.97;6307148;22;20026;-80
2022/12/27 10:38:09;;;;;;;7.90;1.73;;;;;;;5.27;76.67;101806.50;6307276;22;20475;-82
2022/12/27 10:41:32;;;;;;;10.07;2.63;;;;;;;5.02;77.33;101812.78;6288542;22;20046;-81
2022/12/27 10:44:37;;;;;;;7.65;2.55;;;;;;;5.14;76.92;101810.09;6307130;22;20022;-80
2022/12/27 10:47:40;;;;;;;;;;;;;;;5.20;76.98;101807.44;6307599;22;20401;-77
2022/12/27 10:51:10;;;;;;;10.90;3.38;;;;;;;6.16;79.02;101807.22;6307146;22;20248;-69
2022/12/27 10:54:28;;;;;;;8.73;2.90;;;;;;;6.52;76.75;101804.09;6307298;22;20022;-70
2022/12/27 10:57:33;;;;;;;11.30;6.72;;;;;;;5.63;75.74;101803.53;6307284;22;20030;-81
2022/12/27 11:00:36;;;;;;;21.60;17.25;;;;;;;5.49;77.04;101803.69;6306999;22;20026;-80
2022/12/27 11:03:43;;;;;;;9.50;4.78;;;;;;;5.51;76.85;101801.94;6307079;22;20045;-81
2022/12/27 11:07:09;;;;;;;10.98;5.38;;;;;;;5.62;76.30;101805.28;6307200;22;20029;-79
2022/12/27 11:10:17;;;;;;;8.02;3.75;;;;;;;5.51;75.40;101812.31;6307284;22;20152;-80
2022/12/27 11:13:20;;;;;;;8.38;3.58;;;;;;;5.51;76.46;101800.19;6306712;22;20073;-79
2022/12/27 11:16:29;;;;;;;12.95;3.83;;;;;;;5.49;76.21;101814.94;6306160;22;20058;-79
2022/12/27 11:19:33;;;;;;;10.57;5.03;;;;;;;5.50;77.25;101795.88;6305636;22;20037;-80
2022/12/27 11:22:46;;;;;;;7.38;2.78;;;;;;;5.47;76.57;101797.66;6306745;22;20069;-80
2022/12/27 11:26:00;;;;;;;12.68;4.68;;;;;;;5.55;75.93;101795.81;6306683;22;20090;-80
2022/12/27 11:29:04;;;;;;;12.77;3.85;;;;;;;5.40;76.60;101793.41;6306909;22;20491;-81
2022/12/27 11:32:09;;;;;;;12.05;3.10;;;;;;;5.31;76.97;101795.22;6306233;22;20518;-82
2022/12/27 11:35:19;;;;;;;10.85;3.53;;;;;;;5.45;77.00;101789.88;6306728;22;20046;-81
2022/12/27 11:38:29;;;;;;;8.77;3.05;;;;;;;5.61;76.41;101782.78;6306975;22;20022;-81
2022/12/27 11:41:36;;;;;;;8.63;2.80;;;;;;;5.81;75.98;101796.41;6306991;22;20076;-82
2022/12/27 11:44:45;;;;;;;11.25;2.85;;;;;;;5.72;75.31;101793.91;6306562;22;20076;-79
2022/12/27 11:48:01;;;;;;;8.30;3.55;;;;;;;5.98;75.00;101801.41;6288118;22;20026;-79
2022/12/27 11:51:46;;;;;;;10.77;3.55;;;;;;;5.93;74.71;101794.53;6306458;22;20468;-78
2022/12/27 11:55:16;;;;;;;14.20;4.47;;;;;;;5.64;75.43;101793.13;6287502;22;20148;-77
2022/12/27 11:58:47;;;;;;;10.32;3.33;;;;;;;5.76;74.86;101782.59;6306656;22;20531;-79
2022/12/27 12:02:05;;;;;;;20.27;10.00;;;;;;;5.75;75.08;101780.91;6306492;22;20099;-80
2022/12/27 12:05:26;;;;;;;11.70;5.85;;;;;;;5.75;74.95;101778.31;6306670;22;20026;-83
2022/12/27 12:08:51;;;;;;;17.98;7.90;;;;;;;5.73;75.26;101777.44;6306576;22;20046;-78
2022/12/27 12:12:24;;;;;;;10.73;3.10;;;;;;;5.68;75.34;101780.97;6287319;22;20026;-79
2022/12/27 12:15:53;;;;;;;36.50;20.20;;;;;;;5.69;75.01;101775.78;6306570;22;20018;-79
2022/12/27 12:19:23;;;;;;;43.55;24.70;;;;;;;5.71;74.94;101779.22;6306311;22;20076;-80
2022/12/27 12:22:44;;;;;;;44.75;25.23;;;;;;;5.73;75.41;101777.44;6306318;22;20026;-80
2022/12/27 12:25:59;;;;;;;27.25;17.13;;;;;;;5.78;75.12;101775.66;6305756;22;20156;-80
2022/12/27 12:29:23;;;;;;;17.35;7.90;;;;;;;5.70;75.34;101766.25;6305531;22;20544;-80
2022/12/27 12:32:32;;;;;;;18.90;8.75;;;;;;;5.88;75.22;101771.22;6306563;22;20037;-80
2022/12/27 12:35:47;;;;;;;9.55;3.83;;;;;;;5.82;74.65;101774.75;6304505;22;20068;-82
2022/12/27 12:39:00;;;;;;;9.32;3.97;;;;;;;5.76;74.64;101777.41;6306024;22;20073;-79
2022/12/27 12:42:15;;;;;;;8.57;2.78;;;;;;;5.87;74.17;101771.22;6306633;22;20077;-80
2022/12/27 12:45:37;;;;;;;10.57;3.03;;;;;;;5.91;74.35;101776.38;6306626;22;20038;-80
2022/12/27 12:48:44;;;;;;;8.68;2.78;;;;;;;6.08;74.20;101778.78;6306453;22;20094;-73
2022/12/27 12:51:55;;;;;;;10.43;2.92;;;;;;;6.12;74.02;101770.03;6306708;22;20069;-78
2022/12/27 12:55:20;;;;;;;33.78;18.33;;;;;;;6.09;73.38;101772.69;6306456;22;20018;-78
2022/12/27 12:58:55;;;;;;;13.45;3.75;;;;;;;6.11;72.94;101776.13;6306363;22;20021;-78
2022/12/27 13:02:04;;;;;;;;;;;;;;;6.08;73.02;101762.34;6288167;22;20022;-79
2022/12/27 13:05:28;;;;;;;10.43;2.88;;;;;;;6.11;72.28;101762.28;6306474;22;19918;-79
2022/12/27 13:08:41;;;;;;;8.02;1.98;;;;;;;6.14;72.69;101759.66;6306386;22;20021;-77
2022/12/27 13:11:59;;;;;;;16.50;6.00;;;;;;;6.13;73.03;101757.94;6306211;22;20126;-79
2022/12/27 13:15:30;;;;;;;11.30;4.10;;;;;;;6.14;73.51;101752.72;6306400;22;20275;-83
2022/12/27 13:18:33;;;;;;;12.82;5.88;;;;;;;6.22;72.91;101740.50;6306228;22;20171;-78
2022/12/27 13:21:52;;;;;;;7.30;2.45;;;;;;;6.17;72.63;101734.50;6306075;22;20046;-81
2022/12/27 13:25:01;;;;;;;7.13;2.78;;;;;;;6.20;72.51;101726.66;6305828;22;20021;-78
2022/12/27 13:28:37;;;;;;;11.98;2.33;;;;;;;6.36;72.47;101729.03;6306076;22;20072;-78
2022/12/27 13:31:56;;;;;;;11.35;3.47;;;;;;;6.55;73.36;101714.84;6280516;22;20022;-77
2022/12/27 13:35:44;;;;;;;6.82;2.28;;;;;;;6.67;73.76;101719.00;6305996;22;20022;-77
2022/12/27 13:39:06;;;;;;;11.15;2.85;;;;;;;6.72;74.84;101718.03;6252134;22;20025;-76
2022/12/27 13:42:12;;;;;;;9.48;2.92;;;;;;;6.85;74.64;101720.41;6308611;22;20027;-74
2022/12/27 13:45:41;;;;;;;6.70;2.20;;;;;;;6.82;75.45;101712.66;6308182;22;20352;-75
2022/12/27 13:49:18;;;;;;;10.77;3.53;;;;;;;6.86;73.32;101701.31;6308195;22;20525;-77
2022/12/27 13:52:52;;;;;;;8.98;2.50;;;;;;;6.96;71.98;101708.09;6307782;22;20041;-78
2022/12/27 13:56:10;;;;;;;;;;;;;;;7.04;69.59;101702.72;6308760;22;20349;-79
2022/12/27 13:59:25;;;;;;;9.40;2.10;;;;;;;6.80;70.92;101704.06;6308159;22;20000;-75
2022/12/27 14:02:35;;;;;;;6.15;2.30;;;;;;;6.78;70.56;101698.00;6308255;22;20026;-77
2022/12/27 14:06:04;;;;;;;14.20;6.00;;;;;;;6.75;71.06;101693.72;6307090;22;20369;-77
2022/12/27 14:09:17;;;;;;;14.02;7.30;;;;;;;6.76;72.47;101698.03;6308605;22;20026;-78
2022/12/27 14:12:40;;;;;;;9.75;4.75;;;;;;;6.75;71.29;101704.13;6308132;22;20080;-78
2022/12/27 14:16:26;;;;;;;14.43;6.18;;;;;;;6.74;71.66;101698.06;6308081;22;20340;-76
2022/12/27 14:19:48;;;;;;;7.93;2.30;;;;;;;6.62;71.38;101706.06;6209322;22;20022;-76
2022/12/27 14:23:15;;;;;;;8.70;3.08;;;;;;;6.48;71.96;101700.25;6307794;22;20018;-77
2022/12/27 14:26:56;;;;;;;7.60;1.50;;;;;;;6.51;74.82;101708.00;6307964;22;20026;-76
2022/12/27 14:30:28;;;;;;;11.48;5.10;;;;;;;6.50;74.06;101696.72;6307873;22;20022;-77
2022/12/27 14:33:53;;;;;;;6.07;1.92;;;;;;;6.46;72.89;101699.41;6288767;22;20026;-75
2022/12/27 14:37:35;;;;;;;5.32;1.95;;;;;;;6.51;73.53;101692.41;6305853;22;20030;-76
2022/12/27 14:41:04;;;;;;;7.88;2.13;;;;;;;6.36;74.07;101700.47;6306141;22;20513;-77
2022/12/27 14:44:26;;;;;;;9.55;2.55;;;;;;;6.21;74.94;101705.00;6307029;22;20042;-77
2022/12/27 14:47:46;;;;;;;8.98;2.15;;;;;;;5.98;72.90;101702.75;6307186;22;20120;-77
2022/12/27 14:51:24;;;;;;;10.90;2.55;;;;;;;5.97;74.66;101703.63;6306523;22;20349;-76
2022/12/27 14:54:50;;;;;;;9.35;2.17;;;;;;;5.93;75.16;101714.06;6307187;22;20068;-76
2022/12/27 14:57:54;;;;;;;14.50;4.70;;;;;;;5.93;75.29;101724.44;6307322;22;20022;-77
2022/12/27 15:01:08;;;;;;;6.55;1.98;;;;;;;6.09;76.48;101725.94;6307024;22;20030;-76
2022/12/27 15:04:53;;;;;;;10.95;1.77;;;;;;;6.07;77.29;101724.28;6307175;22;20069;-77
2022/12/27 15:08:31;;;;;;;9.05;3.67;;;;;;;5.95;77.40;101723.56;6306891;22;20587;-77
2022/12/27 15:11:47;;;;;;;7.45;3.28;;;;;;;5.67;76.05;101727.38;6306464;22;20458;-76
2022/12/27 15:15:07;;;;;;;7.43;3.38;;;;;;;5.44;79.12;101727.66;6306884;22;20034;-77
2022/12/27 15:18:17;;;;;;;72.85;39.40;;;;;;;5.18;80.20;101723.63;6306918;22;20502;-76
2022/12/27 15:21:30;;;;;;;88.13;43.05;;;;;;;5.32;79.66;101711.34;6306710;22;20026;-77
2022/12/27 15:25:14;;;;;;;38.05;20.05;;;;;;;5.28;77.33;101712.25;6306764;22;20030;-77
2022/12/27 15:28:48;;;;;;;15.90;5.78;;;;;;;5.41;75.82;101709.53;6306717;22;20049;-80
2022/12/27 15:32:00;;;;;;;11.88;5.53;;;;;;;5.51;76.27;101701.59;6309266;22;20112;-75
2022/12/27 15:35:25;;;;;;;7.10;2.53;;;;;;;5.45;77.72;101708.59;6306383;22;20042;-78
2022/12/27 15:38:51;;;;;;;7.38;2.92;;;;;;;5.28;78.72;101709.66;6306711;22;20022;-81
2022/12/27 15:42:04;;;;;;;9.57;4.22;;;;;;;5.14;79.17;101708.97;6306813;22;20025;-77
2022/12/27 15:45:41;;;;;;;6.32;2.80;;;;;;;5.09;79.49;101697.78;6306657;22;20045;-78
2022/12/27 15:49:03;;;;;;;4.78;1.67;;;;;;;5.08;79.75;101703.84;6287655;22;20022;-77
2022/12/27 15:52:35;;;;;;;9.25;1.98;;;;;;;4.80;80.84;101714.50;6306707;22;20064;-76
2022/12/27 15:56:03;;;;;;;8.50;2.50;;;;;;;4.86;80.47;101717.03;6288444;22;20466;-77
2022/12/27 15:59:40;;;;;;;7.65;2.95;;;;;;;4.80;80.98;101711.91;6306477;22;20038;-77
2022/12/27 16:02:51;;;;;;;6.60;1.95;;;;;;;4.78;80.84;101700.69;6305609;22;20121;-77
2022/12/27 16:05:55;;;;;;;7.50;1.92;;;;;;;4.69;81.54;101705.09;6304141;22;20356;-77
2022/12/27 16:09:31;;;;;;;9.63;1.88;;;;;;;4.62;82.28;101691.31;6306853;22;20038;-81
2022/12/27 16:12:38;;;;;;;10.50;1.55;;;;;;;4.62;81.13;101699.94;6301911;22;20026;-79
2022/12/27 16:15:43;;;;;;;4.63;1.40;;;;;;;4.53;82.08;101691.41;6301984;22;20064;-77
2022/12/27 16:18:59;;;;;;;8.32;4.60;;;;;;;4.51;82.15;101696.63;6301864;22;20022;-77
2022/12/27 16:22:18;;;;;;;6.70;2.85;;;;;;;4.65;81.98;101694.75;6301386;22;20421;-78
2022/12/27 16:25:25;;;;;;;5.43;1.90;;;;;;;4.68;81.84;101704.22;6247415;22;20038;-78
2022/12/27 16:28:33;;;;;;;6.60;2.67;;;;;;;4.70;82.37;101702.50;6302304;22;20029;-78
2022/12/27 16:31:43;;;;;;;6.93;1.90;;;;;;;4.64;82.43;101694.78;6301535;22;20041;-78
2022/12/27 16:34:50;;;;;;;6.45;2.83;;;;;;;4.74;81.65;101699.00;6300934;22;20027;-77
2022/12/27 16:37:55;;;;;;;6.72;2.60;;;;;;;4.72;81.65;101700.72;6282389;22;20102;-76
2022/12/27 16:41:28;;;;;;;8.88;2.63;;;;;;;4.75;81.41;101695.53;6301059;22;20073;-75